Beverly Hills, CA (90209)

12:10 AM PDT on September 22, 2014 (GMT -0700)
MacDumes - Park La Brea | Change Station
CLOSE
Current Station
Personal Weather Station
Location: Los Angeles, CA
Elevation: 217 ft
Nearby Weather Stations

Elev 217 ft 34.07 °N, 118.35 °W | Updated 44 seconds ago

Clear
Clear
66.4 °F
Feels Like 66.4 °F
N
0.0
Wind Variable Wind from East
Gusts 0.0 mph

Today
High -- | Low -- °F
--% Chance of Precip.
Yesterday
High -- | Low -- °F
Precip. -- in
6:41 AM 6:50 PM
Waning Crescent, 4% visible
Pressure 29.95 in
Visibility 10.0 miles
Clouds Clear
Dew Point 66 °F
Humidity 99%
Rainfall 0.00 in
Snow Depth Not available.
UV 0 out of 12
Pollen 7.20 out of 12
Ozone Good
Flu Activity Not available.
METAR KSMO 220651Z AUTO 00000KT 10SM CLR 18/16 A2995 RMK AO2 SLP141 T01830161

More Conditions Fewer Conditions

Pressure 29.95 in
Visibility 10.0 miles
Clouds Clear
Dew Point 66 °F
Humidity 99%
Rainfall 0.00 in
Snow Depth Not available.
UV 0 out of 12
Pollen 7.20 out of 12
Ozone Good
Flu Activity Not available.
METAR KSMO 220651Z AUTO 00000KT 10SM CLR 18/16 A2995 RMK AO2 SLP141 T01830161

More Conditions Fewer Conditions

10-Day Weather Forecast

Almanac

Astronomy

Sep. 22, 2014 Rise Set
Actual Time 6:41 AM PDT 6:50 PM PDT
Civil Twilight 6:16 AM PDT 7:15 PM PDT
Nautical Twilight 5:47 AM PDT 7:44 PM PDT
Astronomical Twilight 5:18 AM PDT 8:13 PM PDT
Moon 5:17 AM PDT 5:58 PM PDT
Length of Visible Light 12h 58m
Length of Day
12h 08m
Tomorrow will be 2m 7s shorter.
Waning Crescent, 4% of the Moon is Illuminated
Today
Waning Crescent
Sep 24
New
Oct 1
First Quarter
Oct 8
Full
Oct 15
Last Quarter

Community

WunderPhotos

Upload Photos

1,755,392 photos uploaded!

Nearby

Air Quality

  Air Quality AQ Index Pollutant
Yesterday Good
OZONE
Current Good
OZONE
Monday Good
PM10
Monday Good
OZONE
Monday Good
CO
Monday Good
NO2

Snow Depth

Station Depth Elevation
Summit Meadow 1 in 9122 ft
Forestdale Creek 0 in 8029 ft
Hagan's Meadow 0 in 8000 ft
Spratt Creek 1 in 6200 ft
Monitor Pass 0 in 8350 ft

Earthquake Activity

City Distance Mag. Time & Date
Borrego Springs, California 129 miles 2.6 7:34 AM PDT
2014-09-21
Inyokern, California 139 miles 3.1 5:33 PM PDT
2014-09-19
Aguanga, California 101 miles 2.5 1:38 AM PDT
2014-09-19
Corcoran, California 154 miles 2.9 3:59 PM PDT
2014-09-18
Minimum magnitude displayed is 2.5.

Coastal Water Temperatures

Place Temperature
Santa Monica Pier 69.1 °F
Los Angeles, CA 66.9 °F
La Jolla, CA 71.1 °F

Nearby Weather Stations